Terminal Aerodrome Forecast
Issued by NWS

Home | Current Version | Previous Version | Text Only | Print | Product List | Glossary On
Versions: 1 2 3 4 5 6 7 8 9 10 11 12 13 14 15 16 17 18 19 20 21 22 23 24 25
000
FTUS41 KBTV 260522
TAFSLK
TAF
KSLK 260522Z 2606/2706 25010KT P6SM OVC040
     FM260800 24005KT P6SM FEW040 OVC150
     FM262100 VRB03KT 1 1/2SM -SN BR OVC025
     FM270400 VRB03KT P6SM OVC025=

USA.gov is the U.S. government's official web portal to all federal, state and local government web resources and services.